createdAt,value
2022-10-21T00:00:20.541Z,28.30
2022-10-21T00:02:47.529Z,29.83
2022-10-21T00:05:14.459Z,30.98
2022-10-21T00:07:41.427Z,28.35
2022-10-21T00:10:09.039Z,31.80
2022-10-21T00:12:36.918Z,31.00
2022-10-21T00:15:08.771Z,30.23
2022-10-21T00:17:37.844Z,27.23
2022-10-21T00:20:08.207Z,31.35
2022-10-21T00:22:35.567Z,26.95
2022-10-21T00:25:03.724Z,28.15
2022-10-21T00:28:06.753Z,32.10
2022-10-21T00:30:33.745Z,30.10
2022-10-21T00:33:03.041Z,33.10
2022-10-21T00:35:34.248Z,34.60
2022-10-21T00:38:01.299Z,28.38
2022-10-21T00:40:28.221Z,31.42
2022-10-21T00:42:55.193Z,29.50
2022-10-21T00:45:24.423Z,31.48
2022-10-21T00:48:00.001Z,36.13
2022-10-21T00:50:30.849Z,34.78
2022-10-21T00:52:59.905Z,28.38
2022-10-21T00:55:30.031Z,32.28
2022-10-21T00:57:57.343Z,30.63
2022-10-21T01:00:24.308Z,34.85
2022-10-21T01:02:51.447Z,31.50
2022-10-21T01:05:19.737Z,34.00
2022-10-21T01:07:48.309Z,29.88
2022-10-21T01:10:16.184Z,36.30
2022-10-21T01:12:58.593Z,37.50
2022-10-21T01:15:36.621Z,34.25
2022-10-21T01:18:19.104Z,37.30
2022-10-21T01:21:13.970Z,37.63
2022-10-21T01:26:53.039Z,44.80
2022-10-21T01:29:41.718Z,42.40
2022-10-21T01:32:17.512Z,37.65
2022-10-21T01:34:49.190Z,38.55
2022-10-21T01:37:39.931Z,37.28
2022-10-21T01:41:03.114Z,35.45
2022-10-21T01:43:42.077Z,37.03
2022-10-21T01:46:27.996Z,35.93
2022-10-21T01:49:03.637Z,38.83
2022-10-21T01:51:31.669Z,36.05
2022-10-21T01:54:07.365Z,36.67
2022-10-21T01:56:35.101Z,40.75
2022-10-21T01:59:03.842Z,34.55
2022-10-21T02:01:34.122Z,38.70
2022-10-21T02:04:04.111Z,34.00
2022-10-21T02:06:31.430Z,37.55
2022-10-21T02:08:58.474Z,39.45
2022-10-21T02:11:26.351Z,37.10
2022-10-21T02:14:15.028Z,38.65
2022-10-21T02:16:42.786Z,38.83
2022-10-21T02:19:20.354Z,35.33
2022-10-21T02:21:49.990Z,39.10
2022-10-21T02:24:29.449Z,33.88
2022-10-21T02:26:56.521Z,33.60
2022-10-21T02:29:27.662Z,37.25
2022-10-21T02:32:14.995Z,34.10
2022-10-21T02:35:15.260Z,38.38
2022-10-21T02:38:10.144Z,34.88
2022-10-21T02:40:48.252Z,30.45
2022-10-21T02:43:44.565Z,34.38
2022-10-21T02:46:13.625Z,33.17
2022-10-21T02:48:44.711Z,39.85
2022-10-21T02:51:11.865Z,27.90
2022-10-21T02:53:39.050Z,29.13
2022-10-21T02:56:06.569Z,25.40
2022-10-21T02:58:33.672Z,27.83
2022-10-21T03:01:01.092Z,26.33
2022-10-21T03:03:29.907Z,23.10
2022-10-21T03:05:57.648Z,25.13
2022-10-21T03:08:24.916Z,21.02
2022-10-21T03:10:53.616Z,22.80
2022-10-21T03:13:21.986Z,19.70
2022-10-21T03:15:49.865Z,21.23
2022-10-21T03:22:44.130Z,16.00
2022-10-21T03:25:11.662Z,19.75
2022-10-21T03:27:39.319Z,17.65
2022-10-21T03:30:07.530Z,18.30
2022-10-21T03:32:35.419Z,18.23
2022-10-21T03:35:02.625Z,16.45
2022-10-21T03:37:29.597Z,15.10
2022-10-21T03:39:56.535Z,20.30
2022-10-21T03:42:23.529Z,17.05
2022-10-21T03:44:50.475Z,12.70
2022-10-21T03:47:17.413Z,14.13
2022-10-21T03:49:44.496Z,16.50
2022-10-21T03:52:11.466Z,11.93
2022-10-21T03:54:38.470Z,14.25
2022-10-21T03:57:05.547Z,15.70
2022-10-21T03:59:32.519Z,15.63
2022-10-21T04:01:59.531Z,18.92
2022-10-21T04:04:26.555Z,12.98
2022-10-21T04:06:53.531Z,16.50
2022-10-21T04:09:20.423Z,12.27
2022-10-21T04:11:47.341Z,12.27
2022-10-21T04:14:15.457Z,12.63
2022-10-21T04:16:43.078Z,12.35
2022-10-21T04:19:16.444Z,14.68
2022-10-21T04:21:43.484Z,14.27
2022-10-21T04:24:10.450Z,12.57
2022-10-21T04:26:37.542Z,10.70
2022-10-21T04:29:04.805Z,10.77
2022-10-21T04:31:32.177Z,12.77
2022-10-21T04:33:59.404Z,13.98
2022-10-21T04:36:26.332Z,12.05
2022-10-21T04:38:53.318Z,11.05
2022-10-21T04:41:20.286Z,9.80
2022-10-21T04:43:47.243Z,14.25
2022-10-21T04:46:16.936Z,7.80
2022-10-21T04:48:44.688Z,12.93
2022-10-21T04:51:11.743Z,10.82
2022-10-21T04:53:51.144Z,13.98
2022-10-21T04:56:18.170Z,12.20
2022-10-21T04:58:45.130Z,9.63
2022-10-21T05:01:12.239Z,11.05
2022-10-21T05:03:39.260Z,12.20
2022-10-21T05:06:06.429Z,9.60
2022-10-21T05:08:33.416Z,11.07
2022-10-21T05:11:01.510Z,12.73
2022-10-21T05:13:31.858Z,14.38
2022-10-21T05:16:00.356Z,12.23
2022-10-21T05:18:27.331Z,15.90
2022-10-21T05:20:55.856Z,11.57
2022-10-21T05:23:24.467Z,12.90
2022-10-21T05:25:52.005Z,14.95
2022-10-21T05:28:19.775Z,14.48
2022-10-21T05:30:47.055Z,15.02
2022-10-21T05:33:14.107Z,14.80
2022-10-21T05:35:41.263Z,12.00
2022-10-21T05:38:08.254Z,13.23
2022-10-21T05:40:35.161Z,10.65
2022-10-21T05:43:02.133Z,14.25
2022-10-21T05:45:29.107Z,16.17
2022-10-21T05:47:56.028Z,9.95
2022-10-21T05:50:23.023Z,17.90
2022-10-21T05:52:50.020Z,13.77
2022-10-21T05:55:17.069Z,14.98
2022-10-21T05:57:44.106Z,14.18
2022-10-21T06:00:12.110Z,8.90
2022-10-21T06:02:39.467Z,13.05
2022-10-21T06:05:07.083Z,13.30
2022-10-21T06:07:34.061Z,11.77
2022-10-21T06:10:01.009Z,14.05
2022-10-21T06:12:28.095Z,13.77
2022-10-21T06:14:55.709Z,18.92
2022-10-21T06:17:22.858Z,12.68
2022-10-21T06:19:50.953Z,16.92
2022-10-21T06:22:18.520Z,8.57
2022-10-21T06:24:47.056Z,19.02
2022-10-21T06:27:14.045Z,20.98
2022-10-21T06:29:40.933Z,11.05
2022-10-21T06:32:07.912Z,14.63
2022-10-21T06:34:35.218Z,13.82
2022-10-21T06:37:02.416Z,12.13
2022-10-21T06:39:29.380Z,13.18
2022-10-21T06:41:56.358Z,17.02
2022-10-21T06:44:39.615Z,13.23
2022-10-21T06:47:06.656Z,20.42
2022-10-21T06:49:33.618Z,14.63
2022-10-21T06:52:00.713Z,17.92
2022-10-21T06:54:27.731Z,17.60
2022-10-21T06:56:54.699Z,13.48
2022-10-21T06:59:21.765Z,12.75
2022-10-21T07:01:59.818Z,16.63
2022-10-21T07:04:27.542Z,14.82
2022-10-21T07:06:54.667Z,13.52
2022-10-21T07:09:22.080Z,19.73
2022-10-21T07:11:49.241Z,15.10
2022-10-21T07:14:16.221Z,17.92
2022-10-21T07:16:43.647Z,13.43
2022-10-21T07:19:11.256Z,17.25
2022-10-21T07:21:38.368Z,12.40
2022-10-21T07:24:05.587Z,12.18
2022-10-21T07:26:34.835Z,13.90
2022-10-21T07:29:02.278Z,16.70
2022-10-21T07:31:32.689Z,10.55
2022-10-21T07:34:01.238Z,15.18
2022-10-21T07:36:30.974Z,15.15
2022-10-21T07:39:02.359Z,13.13
2022-10-21T07:41:32.741Z,14.48
2022-10-21T07:44:00.489Z,15.90
2022-10-21T07:46:27.601Z,13.10
2022-10-21T07:48:55.652Z,14.18
2022-10-21T07:51:28.397Z,15.38
2022-10-21T07:53:59.108Z,18.80
2022-10-21T07:56:38.791Z,16.17
2022-10-21T07:59:11.702Z,12.65
2022-10-21T08:01:44.289Z,12.60
2022-10-21T08:04:14.262Z,17.65
2022-10-21T08:06:41.480Z,13.73
2022-10-21T08:09:08.829Z,14.15
2022-10-21T08:11:35.921Z,16.75
2022-10-21T08:14:08.674Z,14.77
2022-10-21T08:16:36.247Z,15.27
2022-10-21T08:19:04.410Z,17.85
2022-10-21T08:21:31.839Z,16.13
2022-10-21T08:24:01.292Z,11.25
2022-10-21T08:26:28.553Z,13.48
2022-10-21T08:28:55.543Z,19.80
2022-10-21T08:31:23.066Z,25.40
2022-10-21T08:33:50.283Z,29.80
2022-10-21T08:36:21.065Z,25.13
2022-10-21T08:38:48.496Z,17.15
2022-10-21T08:41:27.359Z,11.10
2022-10-21T08:43:59.086Z,16.20
2022-10-21T08:46:51.661Z,15.93
2022-10-21T08:49:28.549Z,12.45
2022-10-21T08:52:04.540Z,13.90
2022-10-21T08:54:42.992Z,12.52
2022-10-21T08:57:11.794Z,13.13
2022-10-21T08:59:42.167Z,16.88
2022-10-21T09:02:15.238Z,15.63
2022-10-21T09:05:03.448Z,14.18
2022-10-21T09:07:47.338Z,14.40
2022-10-21T09:10:36.135Z,12.50
2022-10-21T09:13:24.105Z,11.90
2022-10-21T09:16:19.352Z,10.07
2022-10-21T09:19:26.850Z,10.55
2022-10-21T09:22:10.849Z,19.50
2022-10-21T09:25:02.765Z,17.83
2022-10-21T09:27:37.970Z,13.38
2022-10-21T09:30:24.236Z,14.88
2022-10-21T09:32:58.785Z,12.55
2022-10-21T09:35:37.909Z,8.07
2022-10-21T09:38:11.011Z,12.63
2022-10-21T09:40:38.154Z,13.95
2022-10-21T09:43:13.600Z,10.10
2022-10-21T09:45:43.885Z,10.63
2022-10-21T09:48:20.154Z,14.93
2022-10-21T09:50:49.650Z,14.05
2022-10-21T09:53:36.056Z,12.50
2022-10-21T09:56:23.342Z,17.38
2022-10-21T09:59:07.021Z,12.82
2022-10-21T10:01:36.103Z,14.82
2022-10-21T10:04:33.760Z,11.10
2022-10-21T10:07:27.292Z,14.68
2022-10-21T10:09:54.653Z,13.38
2022-10-21T10:12:27.425Z,8.75
2022-10-21T10:14:55.642Z,15.68
2022-10-21T10:17:32.270Z,11.75
2022-10-21T10:20:05.607Z,11.85
2022-10-21T10:22:33.979Z,14.20
2022-10-21T10:25:08.524Z,10.85
2022-10-21T10:27:36.293Z,12.23
2022-10-21T10:30:03.914Z,11.55
2022-10-21T10:32:34.617Z,13.48
2022-10-21T10:35:03.973Z,11.70
2022-10-21T10:37:34.885Z,9.93
2022-10-21T10:40:06.645Z,10.23
2022-10-21T10:42:41.962Z,10.38
2022-10-21T10:45:22.650Z,11.77
2022-10-21T10:47:58.188Z,10.23
2022-10-21T10:50:46.887Z,14.65
2022-10-21T10:53:30.617Z,12.57
2022-10-21T10:56:20.900Z,10.70
2022-10-21T10:58:57.716Z,10.45
2022-10-21T11:01:30.657Z,8.77
2022-10-21T11:04:41.247Z,7.95
2022-10-21T11:07:11.002Z,15.18
2022-10-21T11:09:38.306Z,12.95
2022-10-21T11:12:13.746Z,10.05
2022-10-21T11:14:40.678Z,10.68
2022-10-21T11:17:13.520Z,6.55
2022-10-21T11:19:59.606Z,6.95
2022-10-21T11:22:42.088Z,9.13
2022-10-21T11:25:15.053Z,8.43
2022-10-21T11:28:16.348Z,7.80
2022-10-21T11:31:15.230Z,13.02
2022-10-21T11:34:01.919Z,10.10
2022-10-21T11:36:46.156Z,11.80
2022-10-21T11:39:31.692Z,10.65
2022-10-21T11:46:40.320Z,7.60
2022-10-21T11:49:26.300Z,10.15
2022-10-21T11:52:17.559Z,8.95
2022-10-21T11:55:09.047Z,8.20
2022-10-21T11:57:43.597Z,8.68
2022-10-21T12:00:20.855Z,8.75
2022-10-21T12:03:06.166Z,7.97
2022-10-21T12:05:38.347Z,19.08
2022-10-21T12:08:11.639Z,10.10
2022-10-21T12:10:53.053Z,11.70
2022-10-21T12:13:48.070Z,13.07
2022-10-21T12:16:20.641Z,18.30
2022-10-21T12:19:05.666Z,12.70
2022-10-21T12:21:39.877Z,18.27
2022-10-21T12:24:14.241Z,18.23
2022-10-21T12:27:08.511Z,12.63
2022-10-21T12:30:13.196Z,6.80
2022-10-21T12:33:01.605Z,9.65
2022-10-21T12:36:33.236Z,6.75
2022-10-21T12:39:00.617Z,7.47
2022-10-21T12:41:34.290Z,5.35
2022-10-21T12:44:01.166Z,8.82
2022-10-21T12:47:01.200Z,7.82
2022-10-21T12:49:28.167Z,4.72
2022-10-21T12:52:11.671Z,7.50
2022-10-21T12:54:57.075Z,4.93
2022-10-21T12:57:26.552Z,4.93
2022-10-21T13:00:16.789Z,3.05
2022-10-21T13:03:12.594Z,10.25
2022-10-21T13:05:39.485Z,5.07
2022-10-21T13:08:24.537Z,7.13
2022-10-21T13:11:06.408Z,6.88
2022-10-21T13:13:40.176Z,10.25
2022-10-21T13:16:19.160Z,11.10
2022-10-21T13:19:01.094Z,8.20
2022-10-21T13:21:34.351Z,7.50
2022-10-21T13:24:23.916Z,5.63
2022-10-21T13:26:57.749Z,13.88
2022-10-21T13:29:48.297Z,7.45
2022-10-21T13:32:15.419Z,4.15
2022-10-21T13:35:03.749Z,3.28
2022-10-21T13:37:39.187Z,11.25
2022-10-21T13:40:16.107Z,6.45
2022-10-21T13:42:48.425Z,3.83
2022-10-21T13:45:27.540Z,6.47
2022-10-21T13:48:12.765Z,6.88
2022-10-21T13:51:10.368Z,4.60
2022-10-21T13:53:43.702Z,8.30
2022-10-21T13:56:23.738Z,5.68
2022-10-21T13:58:51.281Z,7.38
2022-10-21T14:01:22.391Z,4.72
2022-10-21T14:03:50.107Z,10.43
2022-10-21T14:06:30.553Z,3.10
2022-10-21T14:09:04.229Z,7.95
2022-10-21T14:11:37.251Z,3.53
2022-10-21T14:14:09.629Z,7.50
2022-10-21T14:16:40.093Z,4.65
2022-10-21T14:19:17.073Z,3.55
2022-10-21T14:21:46.715Z,7.10
2022-10-21T14:24:34.030Z,6.88
2022-10-21T14:27:01.872Z,5.18
2022-10-21T14:29:33.192Z,5.88
2022-10-21T14:32:01.312Z,4.03
2022-10-21T14:34:31.545Z,6.30
2022-10-21T14:37:11.812Z,5.13
2022-10-21T14:39:39.779Z,8.35
2022-10-21T14:42:20.556Z,7.15
2022-10-21T14:44:51.179Z,7.35
2022-10-21T14:47:26.410Z,4.20
2022-10-21T14:49:56.434Z,5.88
2022-10-21T14:52:36.461Z,4.68
2022-10-21T14:55:09.891Z,4.93
2022-10-21T14:57:47.787Z,7.18
2022-10-21T15:00:32.116Z,7.63
2022-10-21T15:03:00.902Z,5.15
2022-10-21T15:05:31.060Z,5.47
2022-10-21T15:08:40.359Z,2.20
2022-10-21T15:11:11.983Z,2.88
2022-10-21T15:13:39.143Z,5.47
2022-10-21T15:16:19.648Z,4.35
2022-10-21T15:18:49.016Z,2.28
2022-10-21T15:21:41.835Z,2.45
2022-10-21T15:24:21.786Z,2.80
2022-10-21T15:26:50.959Z,4.82
2022-10-21T15:29:27.365Z,5.65
2022-10-21T15:31:58.782Z,2.22
2022-10-21T15:34:26.045Z,5.57
2022-10-21T15:36:53.087Z,5.63
2022-10-21T15:39:20.047Z,2.25
2022-10-21T15:41:50.045Z,5.28
2022-10-21T15:44:22.039Z,6.95
2022-10-21T15:46:50.493Z,2.33
2022-10-21T15:49:20.329Z,7.15
2022-10-21T15:54:15.724Z,4.00
2022-10-21T15:56:44.465Z,4.85
2022-10-21T15:59:26.121Z,7.85
2022-10-21T16:01:53.833Z,2.47
2022-10-21T16:04:21.503Z,3.45
2022-10-21T16:06:49.060Z,5.72
2022-10-21T16:09:21.098Z,7.25
2022-10-21T16:11:59.256Z,4.70
2022-10-21T16:14:29.556Z,8.13
2022-10-21T16:17:00.675Z,3.70
2022-10-21T16:19:28.469Z,2.78
2022-10-21T16:21:56.384Z,7.93
2022-10-21T16:24:32.467Z,9.82
2022-10-21T16:26:59.474Z,2.00
2022-10-21T16:29:43.545Z,5.85
2022-10-21T16:32:13.540Z,4.78
2022-10-21T16:34:40.749Z,2.28
2022-10-21T16:37:23.763Z,7.60
2022-10-21T16:39:50.909Z,6.00
2022-10-21T16:42:18.018Z,2.60
2022-10-21T16:44:46.329Z,12.45
2022-10-21T16:48:11.492Z,3.17
2022-10-21T16:50:43.640Z,11.90
2022-10-21T16:53:14.883Z,9.20
2022-10-21T17:00:07.568Z,2.60
2022-10-21T17:02:40.177Z,1.48
2022-10-21T17:05:08.161Z,5.03
2022-10-21T17:07:35.201Z,2.58
2022-10-21T17:10:02.281Z,5.15
2022-10-21T17:12:32.885Z,2.33
2022-10-21T17:15:00.878Z,4.03
2022-10-21T17:17:28.225Z,3.20
2022-10-21T17:19:55.213Z,3.35
2022-10-21T17:22:22.197Z,4.07
2022-10-21T17:24:49.693Z,6.85
2022-10-21T17:27:19.647Z,2.67
2022-10-21T17:29:47.009Z,2.42
2022-10-21T17:32:14.009Z,2.85
2022-10-21T17:35:37.506Z,4.10
2022-10-21T17:38:04.484Z,4.30
2022-10-21T17:40:31.563Z,3.15
2022-10-21T17:42:58.757Z,2.88
2022-10-21T17:45:25.756Z,2.05
2022-10-21T17:47:53.339Z,1.77
2022-10-21T17:50:23.835Z,4.55
2022-10-21T17:52:54.147Z,4.15
2022-10-21T17:55:27.378Z,2.42
2022-10-21T17:57:54.421Z,9.38
2022-10-21T18:00:21.428Z,2.58
2022-10-21T18:02:48.462Z,2.92
2022-10-21T18:05:15.774Z,3.85
2022-10-21T18:07:45.866Z,2.90
2022-10-21T18:10:12.885Z,4.38
2022-10-21T18:12:40.039Z,3.05
2022-10-21T18:15:07.474Z,6.00
2022-10-21T18:17:35.156Z,2.42
2022-10-21T18:20:02.614Z,2.03
2022-10-21T18:22:29.852Z,4.00
2022-10-21T18:28:51.347Z,6.90
2022-10-21T18:31:22.029Z,4.15
2022-10-21T18:33:49.690Z,5.10
2022-10-21T18:36:18.558Z,5.82
2022-10-21T18:38:46.422Z,4.80
2022-10-21T18:41:20.224Z,15.32
2022-10-21T18:43:53.984Z,16.17
2022-10-21T18:46:22.750Z,8.40
2022-10-21T18:48:50.361Z,8.18
2022-10-21T18:51:22.607Z,7.38
2022-10-21T18:53:53.425Z,14.60
2022-10-21T18:56:22.541Z,7.22
2022-10-21T18:58:50.055Z,8.90
2022-10-21T19:01:18.039Z,4.72
2022-10-21T19:03:45.484Z,5.28
2022-10-21T19:06:40.314Z,10.23
2022-10-21T19:09:22.792Z,5.80
2022-10-21T19:11:50.345Z,10.25
2022-10-21T19:14:18.249Z,10.10
2022-10-21T19:16:48.477Z,16.60
2022-10-21T19:19:16.761Z,22.53
2022-10-21T19:21:44.553Z,16.35
2022-10-21T19:24:13.323Z,9.07
2022-10-21T19:26:47.238Z,10.43
2022-10-21T19:37:45.432Z,5.72
2022-10-21T19:40:17.829Z,6.78
2022-10-21T19:42:44.931Z,6.53
2022-10-21T19:45:16.961Z,8.13
2022-10-21T19:47:47.816Z,10.80
2022-10-21T19:50:15.086Z,10.07
2022-10-21T19:52:42.377Z,14.38
2022-10-21T19:55:09.652Z,13.75
2022-10-21T19:57:36.708Z,14.13
2022-10-21T20:00:04.762Z,11.77
2022-10-21T20:02:41.096Z,12.18
2022-10-21T20:05:08.997Z,11.07
2022-10-21T20:07:39.093Z,10.73
2022-10-21T20:10:06.678Z,7.55
2022-10-21T20:12:33.627Z,7.68
2022-10-21T20:15:00.521Z,8.65
2022-10-21T20:17:27.501Z,9.65
2022-10-21T20:19:54.388Z,7.22
2022-10-21T20:22:21.502Z,12.10
2022-10-21T20:24:50.777Z,9.15
2022-10-21T20:31:36.842Z,6.13
2022-10-21T20:34:04.270Z,7.60
2022-10-21T20:36:35.200Z,12.02
2022-10-21T20:39:03.271Z,7.38
2022-10-21T20:41:37.431Z,6.82
2022-10-21T20:44:06.869Z,8.85
2022-10-21T20:46:36.237Z,5.82
2022-10-21T20:50:02.533Z,8.82
2022-10-21T20:56:32.738Z,7.18
2022-10-21T21:01:31.337Z,10.55
2022-10-21T21:04:00.844Z,8.50
2022-10-21T21:06:28.707Z,4.25
2022-10-21T21:09:25.776Z,5.57
2022-10-21T21:11:43.516Z,8.57
2022-10-21T21:14:11.064Z,9.07
2022-10-21T21:16:38.598Z,8.10
2022-10-21T21:19:07.467Z,6.63
2022-10-21T21:21:36.417Z,9.52
2022-10-21T21:24:04.085Z,8.10
2022-10-21T21:26:37.191Z,5.05
2022-10-21T21:29:06.560Z,7.35
2022-10-21T21:31:35.064Z,6.65
2022-10-21T21:34:02.123Z,11.98
2022-10-21T21:36:29.152Z,8.43
2022-10-21T21:38:56.205Z,5.78
2022-10-21T21:41:24.970Z,7.60
2022-10-21T21:43:53.137Z,6.75
2022-10-21T21:46:24.430Z,13.65
2022-10-21T21:48:59.532Z,5.78
2022-10-21T21:51:30.066Z,14.20
2022-10-21T21:53:57.953Z,7.63
2022-10-21T21:56:25.934Z,16.75
2022-10-21T21:58:55.814Z,11.40
2022-10-21T22:04:11.462Z,10.05
2022-10-21T22:06:38.606Z,7.82
2022-10-21T22:09:11.865Z,13.43
2022-10-21T22:11:39.370Z,9.18
2022-10-21T22:14:06.361Z,7.57
2022-10-21T22:16:33.414Z,12.38
2022-10-21T22:19:01.163Z,8.57
2022-10-21T22:21:29.103Z,7.63
2022-10-21T22:23:56.115Z,3.85
2022-10-21T22:26:23.410Z,4.15
2022-10-21T22:28:50.426Z,6.10
2022-10-21T22:31:18.677Z,3.17
2022-10-21T22:33:46.318Z,4.43
2022-10-21T22:36:13.615Z,5.15
2022-10-21T22:38:40.658Z,4.07
2022-10-21T22:41:12.192Z,4.15
2022-10-21T22:43:40.101Z,3.25
2022-10-21T22:46:21.503Z,6.22
2022-10-21T22:48:54.047Z,6.45
2022-10-21T22:51:21.684Z,5.75
2022-10-21T22:53:53.550Z,3.92
2022-10-21T22:56:25.350Z,5.20
2022-10-21T22:58:52.504Z,4.07
2022-10-21T23:01:19.861Z,4.57
2022-10-21T23:03:46.815Z,9.35
2022-10-21T23:06:13.767Z,6.45
2022-10-21T23:08:41.010Z,13.82
2022-10-21T23:11:08.122Z,8.65
2022-10-21T23:13:35.072Z,5.45
2022-10-21T23:16:02.045Z,4.80
2022-10-21T23:18:29.145Z,7.93
2022-10-21T23:20:56.109Z,11.45
2022-10-21T23:23:23.205Z,10.90
2022-10-21T23:25:50.252Z,12.63
2022-10-21T23:30:45.443Z,7.20
2022-10-21T23:33:12.421Z,5.22
2022-10-21T23:35:39.720Z,5.00
2022-10-21T23:38:07.037Z,3.40
2022-10-21T23:40:34.392Z,7.30
2022-10-21T23:43:01.326Z,5.00
2022-10-21T23:45:28.405Z,7.30
2022-10-21T23:47:55.364Z,5.72
2022-10-21T23:50:22.509Z,6.25
2022-10-21T23:52:49.669Z,6.95
2022-10-21T23:55:16.732Z,5.03
2022-10-21T23:57:43.845Z,6.90
